Hillsville, Virginia
Current Conditions -  °F | °C
As of 9:55 AM on Wednesday 26 Nov 2014 (Local Time) from KHLX Reporting Station
Light Snow Light Snow  
Wind Chill: 26°   Ceiling: 300
Heat Index: 32°   Visibility: 0.75mi
Dew Point: 32°   Wind: 6mph
Humidity: 100%   Direction: 330°NNW
Pressure: 29.98"   Gusts: NA
Location:  36.76°N, 80.73°W
Report Text: KHLX 261455Z AUTO 33005KT 3/4SM -SN OVC003 00/00 A2998 RMK AO2 60001 T00000000
Loading
Personal Weather Stations






























Interactive Weather Map New forecast layout! Learn more

10-Day Weather Forecast

Advertisements
Track Severe Weather on mobile